sensor_id;sensor_type;location;lat;lon;timestamp;P1;durP1;ratioP1;P2;durP2;ratioP2
21254;SDS011;10785;50.674;17.954;2023-03-23T00:00:25;3.78;;;2.58;;
21254;SDS011;10785;50.674;17.954;2023-03-23T00:02:53;8.38;;;7.47;;
21254;SDS011;10785;50.674;17.954;2023-03-23T00:05:20;7.47;;;5.22;;
21254;SDS011;10785;50.674;17.954;2023-03-23T00:07:48;7.70;;;3.35;;
21254;SDS011;10785;50.674;17.954;2023-03-23T00:10:17;5.57;;;4.85;;
21254;SDS011;10785;50.674;17.954;2023-03-23T00:12:46;7.90;;;5.68;;
21254;SDS011;10785;50.674;17.954;2023-03-23T00:15:15;5.40;;;3.35;;
21254;SDS011;10785;50.674;17.954;2023-03-23T00:17:43;3.55;;;3.33;;
21254;SDS011;10785;50.674;17.954;2023-03-23T00:20:10;3.10;;;2.83;;
21254;SDS011;10785;50.674;17.954;2023-03-23T00:22:38;1.65;;;1.58;;
21254;SDS011;10785;50.674;17.954;2023-03-23T00:25:06;2.30;;;2.17;;
21254;SDS011;10785;50.674;17.954;2023-03-23T00:27:34;4.63;;;3.22;;
21254;SDS011;10785;50.674;17.954;2023-03-23T00:30:04;7.38;;;5.25;;
21254;SDS011;10785;50.674;17.954;2023-03-23T00:32:33;10.82;;;3.10;;
21254;SDS011;10785;50.674;17.954;2023-03-23T00:35:01;3.50;;;2.45;;
21254;SDS011;10785;50.674;17.954;2023-03-23T00:37:29;3.17;;;2.97;;
21254;SDS011;10785;50.674;17.954;2023-03-23T00:39:56;3.65;;;3.13;;
21254;SDS011;10785;50.674;17.954;2023-03-23T00:42:28;9.00;;;3.42;;
21254;SDS011;10785;50.674;17.954;2023-03-23T00:44:55;2.20;;;2.03;;
21254;SDS011;10785;50.674;17.954;2023-03-23T00:47:27;5.28;;;2.75;;
21254;SDS011;10785;50.674;17.954;2023-03-23T00:49:56;3.95;;;3.03;;
21254;SDS011;10785;50.674;17.954;2023-03-23T00:52:24;2.35;;;2.15;;
21254;SDS011;10785;50.674;17.954;2023-03-23T00:54:52;3.92;;;2.55;;
21254;SDS011;10785;50.674;17.954;2023-03-23T00:57:19;3.33;;;2.33;;
21254;SDS011;10785;50.674;17.954;2023-03-23T00:59:50;3.55;;;3.03;;
21254;SDS011;10785;50.674;17.954;2023-03-23T01:02:17;2.35;;;2.15;;
21254;SDS011;10785;50.674;17.954;2023-03-23T01:04:46;3.25;;;2.33;;
21254;SDS011;10785;50.674;17.954;2023-03-23T01:07:17;1.92;;;1.83;;
21254;SDS011;10785;50.674;17.954;2023-03-23T01:09:45;4.35;;;2.97;;
21254;SDS011;10785;50.674;17.954;2023-03-23T01:12:13;3.42;;;2.67;;
21254;SDS011;10785;50.674;17.954;2023-03-23T01:14:41;2.05;;;1.92;;
21254;SDS011;10785;50.674;17.954;2023-03-23T01:17:09;1.52;;;1.25;;
21254;SDS011;10785;50.674;17.954;2023-03-23T01:19:36;1.67;;;1.35;;
21254;SDS011;10785;50.674;17.954;2023-03-23T01:22:07;3.58;;;3.35;;
21254;SDS011;10785;50.674;17.954;2023-03-23T01:24:34;6.68;;;2.08;;
21254;SDS011;10785;50.674;17.954;2023-03-23T01:27:01;3.85;;;2.80;;
21254;SDS011;10785;50.674;17.954;2023-03-23T01:29:32;11.35;;;2.45;;
21254;SDS011;10785;50.674;17.954;2023-03-23T01:32:00;4.15;;;3.78;;
21254;SDS011;10785;50.674;17.954;2023-03-23T01:34:28;3.55;;;2.35;;
21254;SDS011;10785;50.674;17.954;2023-03-23T01:36:55;14.40;;;3.90;;
21254;SDS011;10785;50.674;17.954;2023-03-23T01:39:24;2.75;;;2.53;;
21254;SDS011;10785;50.674;17.954;2023-03-23T01:41:52;5.00;;;2.70;;
21254;SDS011;10785;50.674;17.954;2023-03-23T01:47:26;3.85;;;3.30;;
21254;SDS011;10785;50.674;17.954;2023-03-23T01:49:54;3.95;;;3.58;;
21254;SDS011;10785;50.674;17.954;2023-03-23T01:52:22;3.95;;;2.30;;
21254;SDS011;10785;50.674;17.954;2023-03-23T01:55:01;4.18;;;3.75;;
21254;SDS011;10785;50.674;17.954;2023-03-23T01:57:30;4.72;;;3.63;;
21254;SDS011;10785;50.674;17.954;2023-03-23T02:00:02;6.10;;;3.10;;
21254;SDS011;10785;50.674;17.954;2023-03-23T02:02:48;2.33;;;2.22;;
21254;SDS011;10785;50.674;17.954;2023-03-23T02:05:20;3.22;;;3.03;;
21254;SDS011;10785;50.674;17.954;2023-03-23T02:07:51;5.28;;;2.85;;
21254;SDS011;10785;50.674;17.954;2023-03-23T02:10:22;4.82;;;3.83;;
21254;SDS011;10785;50.674;17.954;2023-03-23T02:12:49;5.47;;;2.20;;
21254;SDS011;10785;50.674;17.954;2023-03-23T02:15:17;16.58;;;3.15;;
21254;SDS011;10785;50.674;17.954;2023-03-23T02:17:48;2.28;;;2.17;;
21254;SDS011;10785;50.674;17.954;2023-03-23T02:20:30;2.15;;;2.03;;
21254;SDS011;10785;50.674;17.954;2023-03-23T02:23:13;2.65;;;2.42;;
21254;SDS011;10785;50.674;17.954;2023-03-23T02:26:03;3.50;;;3.10;;
21254;SDS011;10785;50.674;17.954;2023-03-23T02:31:40;2.63;;;2.35;;
21254;SDS011;10785;50.674;17.954;2023-03-23T02:34:21;2.28;;;2.15;;
21254;SDS011;10785;50.674;17.954;2023-03-23T02:36:55;2.17;;;1.90;;
21254;SDS011;10785;50.674;17.954;2023-03-23T02:39:29;3.28;;;3.08;;
21254;SDS011;10785;50.674;17.954;2023-03-23T02:42:00;4.65;;;3.85;;
21254;SDS011;10785;50.674;17.954;2023-03-23T02:44:32;2.33;;;2.13;;
21254;SDS011;10785;50.674;17.954;2023-03-23T02:47:03;4.88;;;2.13;;
21254;SDS011;10785;50.674;17.954;2023-03-23T02:49:35;6.57;;;2.15;;
21254;SDS011;10785;50.674;17.954;2023-03-23T02:52:07;5.22;;;2.75;;
21254;SDS011;10785;50.674;17.954;2023-03-23T02:54:42;3.03;;;2.72;;
21254;SDS011;10785;50.674;17.954;2023-03-23T02:57:22;3.97;;;2.15;;
21254;SDS011;10785;50.674;17.954;2023-03-23T02:59:53;3.63;;;3.13;;
21254;SDS011;10785;50.674;17.954;2023-03-23T03:02:21;3.42;;;3.15;;
21254;SDS011;10785;50.674;17.954;2023-03-23T03:04:53;2.78;;;2.17;;
21254;SDS011;10785;50.674;17.954;2023-03-23T03:07:30;2.35;;;2.17;;
21254;SDS011;10785;50.674;17.954;2023-03-23T03:26:10;2.92;;;2.72;;
21254;SDS011;10785;50.674;17.954;2023-03-23T03:28:48;2.47;;;2.38;;
21254;SDS011;10785;50.674;17.954;2023-03-23T03:31:20;3.25;;;2.97;;
21254;SDS011;10785;50.674;17.954;2023-03-23T03:33:50;2.55;;;2.35;;
21254;SDS011;10785;50.674;17.954;2023-03-23T03:36:18;3.25;;;2.28;;
21254;SDS011;10785;50.674;17.954;2023-03-23T03:38:50;7.97;;;2.65;;
21254;SDS011;10785;50.674;17.954;2023-03-23T03:41:20;3.35;;;3.05;;
21254;SDS011;10785;50.674;17.954;2023-03-23T03:43:48;2.45;;;2.35;;
21254;SDS011;10785;50.674;17.954;2023-03-23T03:46:15;7.30;;;3.83;;
21254;SDS011;10785;50.674;17.954;2023-03-23T03:48:43;3.90;;;3.30;;
21254;SDS011;10785;50.674;17.954;2023-03-23T03:51:13;9.07;;;4.68;;
21254;SDS011;10785;50.674;17.954;2023-03-23T03:53:47;2.90;;;2.70;;
21254;SDS011;10785;50.674;17.954;2023-03-23T03:56:16;1.73;;;1.55;;
21254;SDS011;10785;50.674;17.954;2023-03-23T03:58:53;6.13;;;2.95;;
21254;SDS011;10785;50.674;17.954;2023-03-23T04:01:29;2.67;;;2.50;;
21254;SDS011;10785;50.674;17.954;2023-03-23T04:03:56;4.28;;;3.15;;
21254;SDS011;10785;50.674;17.954;2023-03-23T04:06:31;3.20;;;2.95;;
21254;SDS011;10785;50.674;17.954;2023-03-23T04:09:02;2.35;;;2.25;;
21254;SDS011;10785;50.674;17.954;2023-03-23T04:11:33;2.17;;;1.98;;
21254;SDS011;10785;50.674;17.954;2023-03-23T04:14:21;3.97;;;3.35;;
21254;SDS011;10785;50.674;17.954;2023-03-23T04:16:49;5.10;;;3.38;;
21254;SDS011;10785;50.674;17.954;2023-03-23T04:19:17;3.60;;;3.15;;
21254;SDS011;10785;50.674;17.954;2023-03-23T04:21:45;12.10;;;4.07;;
21254;SDS011;10785;50.674;17.954;2023-03-23T04:24:15;5.30;;;3.50;;
21254;SDS011;10785;50.674;17.954;2023-03-23T04:26:48;2.38;;;2.22;;
21254;SDS011;10785;50.674;17.954;2023-03-23T04:29:25;4.78;;;2.95;;
21254;SDS011;10785;50.674;17.954;2023-03-23T04:32:12;2.13;;;2.03;;
21254;SDS011;10785;50.674;17.954;2023-03-23T04:34:47;3.47;;;2.75;;
21254;SDS011;10785;50.674;17.954;2023-03-23T04:37:15;6.72;;;3.40;;
21254;SDS011;10785;50.674;17.954;2023-03-23T04:39:44;3.90;;;3.60;;
21254;SDS011;10785;50.674;17.954;2023-03-23T04:42:13;2.65;;;2.42;;
21254;SDS011;10785;50.674;17.954;2023-03-23T04:45:06;3.85;;;3.33;;
21254;SDS011;10785;50.674;17.954;2023-03-23T04:47:37;4.88;;;3.22;;
21254;SDS011;10785;50.674;17.954;2023-03-23T04:50:15;2.42;;;2.25;;
21254;SDS011;10785;50.674;17.954;2023-03-23T04:52:44;9.45;;;3.85;;
21254;SDS011;10785;50.674;17.954;2023-03-23T04:55:14;3.83;;;3.50;;
21254;SDS011;10785;50.674;17.954;2023-03-23T04:57:46;3.53;;;3.00;;
21254;SDS011;10785;50.674;17.954;2023-03-23T05:00:33;3.22;;;2.92;;
21254;SDS011;10785;50.674;17.954;2023-03-23T05:03:03;6.05;;;4.05;;
21254;SDS011;10785;50.674;17.954;2023-03-23T05:05:33;13.85;;;4.50;;
21254;SDS011;10785;50.674;17.954;2023-03-23T05:08:05;12.30;;;3.15;;
21254;SDS011;10785;50.674;17.954;2023-03-23T05:10:36;3.65;;;3.30;;
21254;SDS011;10785;50.674;17.954;2023-03-23T05:13:08;3.25;;;2.95;;
21254;SDS011;10785;50.674;17.954;2023-03-23T05:15:38;6.40;;;3.28;;
21254;SDS011;10785;50.674;17.954;2023-03-23T05:18:07;4.43;;;4.03;;
21254;SDS011;10785;50.674;17.954;2023-03-23T05:20:37;3.10;;;2.90;;
21254;SDS011;10785;50.674;17.954;2023-03-23T05:23:14;12.40;;;4.18;;
21254;SDS011;10785;50.674;17.954;2023-03-23T05:25:51;4.40;;;3.55;;
21254;SDS011;10785;50.674;17.954;2023-03-23T05:28:19;4.22;;;3.80;;
21254;SDS011;10785;50.674;17.954;2023-03-23T05:30:56;1.92;;;1.80;;
21254;SDS011;10785;50.674;17.954;2023-03-23T05:33:29;2.85;;;2.50;;
21254;SDS011;10785;50.674;17.954;2023-03-23T05:36:15;4.13;;;2.50;;
21254;SDS011;10785;50.674;17.954;2023-03-23T05:39:06;3.50;;;2.88;;
21254;SDS011;10785;50.674;17.954;2023-03-23T05:42:00;4.53;;;4.07;;
21254;SDS011;10785;50.674;17.954;2023-03-23T05:44:40;2.53;;;1.90;;
21254;SDS011;10785;50.674;17.954;2023-03-23T05:47:10;13.38;;;4.57;;
21254;SDS011;10785;50.674;17.954;2023-03-23T05:49:41;3.92;;;3.63;;
21254;SDS011;10785;50.674;17.954;2023-03-23T05:52:14;6.90;;;3.50;;
21254;SDS011;10785;50.674;17.954;2023-03-23T05:54:46;5.18;;;4.05;;
21254;SDS011;10785;50.674;17.954;2023-03-23T05:57:14;6.32;;;3.42;;
21254;SDS011;10785;50.674;17.954;2023-03-23T05:59:49;3.33;;;2.40;;
21254;SDS011;10785;50.674;17.954;2023-03-23T06:02:23;3.30;;;3.00;;
21254;SDS011;10785;50.674;17.954;2023-03-23T06:04:54;2.58;;;2.38;;
21254;SDS011;10785;50.674;17.954;2023-03-23T06:07:32;4.57;;;3.25;;
21254;SDS011;10785;50.674;17.954;2023-03-23T06:10:03;5.32;;;3.72;;
21254;SDS011;10785;50.674;17.954;2023-03-23T06:12:32;4.13;;;3.28;;
21254;SDS011;10785;50.674;17.954;2023-03-23T06:15:03;6.20;;;3.38;;
21254;SDS011;10785;50.674;17.954;2023-03-23T06:17:52;2.63;;;2.42;;
21254;SDS011;10785;50.674;17.954;2023-03-23T06:20:27;2.28;;;2.15;;
21254;SDS011;10785;50.674;17.954;2023-03-23T06:22:58;4.82;;;2.63;;
21254;SDS011;10785;50.674;17.954;2023-03-23T06:25:31;2.03;;;1.77;;
21254;SDS011;10785;50.674;17.954;2023-03-23T06:27:59;5.60;;;4.50;;
21254;SDS011;10785;50.674;17.954;2023-03-23T06:30:26;3.50;;;3.20;;
21254;SDS011;10785;50.674;17.954;2023-03-23T06:32:58;2.03;;;1.58;;
21254;SDS011;10785;50.674;17.954;2023-03-23T06:35:46;8.10;;;3.28;;
21254;SDS011;10785;50.674;17.954;2023-03-23T06:38:25;5.68;;;2.10;;
21254;SDS011;10785;50.674;17.954;2023-03-23T06:40:54;5.43;;;3.33;;
21254;SDS011;10785;50.674;17.954;2023-03-23T06:43:24;5.75;;;3.50;;
21254;SDS011;10785;50.674;17.954;2023-03-23T06:46:07;4.40;;;2.58;;
21254;SDS011;10785;50.674;17.954;2023-03-23T06:48:42;8.38;;;3.33;;
21254;SDS011;10785;50.674;17.954;2023-03-23T06:51:15;3.38;;;3.08;;
21254;SDS011;10785;50.674;17.954;2023-03-23T06:53:47;1.88;;;1.77;;
21254;SDS011;10785;50.674;17.954;2023-03-23T06:56:15;5.70;;;2.30;;
21254;SDS011;10785;50.674;17.954;2023-03-23T06:58:44;6.03;;;2.60;;
21254;SDS011;10785;50.674;17.954;2023-03-23T07:01:12;3.75;;;3.45;;
21254;SDS011;10785;50.674;17.954;2023-03-23T07:03:50;4.70;;;3.22;;
21254;SDS011;10785;50.674;17.954;2023-03-23T07:06:27;3.60;;;3.30;;
21254;SDS011;10785;50.674;17.954;2023-03-23T07:09:07;2.78;;;2.05;;
21254;SDS011;10785;50.674;17.954;2023-03-23T07:11:35;3.35;;;2.67;;
21254;SDS011;10785;50.674;17.954;2023-03-23T07:14:11;3.03;;;2.20;;
21254;SDS011;10785;50.674;17.954;2023-03-23T07:16:40;4.15;;;2.08;;
21254;SDS011;10785;50.674;17.954;2023-03-23T07:19:09;2.30;;;1.85;;
21254;SDS011;10785;50.674;17.954;2023-03-23T07:21:36;2.08;;;1.95;;
21254;SDS011;10785;50.674;17.954;2023-03-23T07:24:04;2.58;;;1.80;;
21254;SDS011;10785;50.674;17.954;2023-03-23T07:26:43;5.97;;;3.22;;
21254;SDS011;10785;50.674;17.954;2023-03-23T07:29:11;2.67;;;2.47;;
21254;SDS011;10785;50.674;17.954;2023-03-23T07:31:46;2.30;;;1.88;;
21254;SDS011;10785;50.674;17.954;2023-03-23T07:34:16;6.55;;;1.88;;
21254;SDS011;10785;50.674;17.954;2023-03-23T07:37:10;2.90;;;1.90;;
21254;SDS011;10785;50.674;17.954;2023-03-23T07:39:41;3.70;;;2.60;;
21254;SDS011;10785;50.674;17.954;2023-03-23T07:42:09;5.15;;;2.60;;
21254;SDS011;10785;50.674;17.954;2023-03-23T07:44:55;3.63;;;2.20;;
21254;SDS011;10785;50.674;17.954;2023-03-23T07:47:23;1.88;;;1.75;;
21254;SDS011;10785;50.674;17.954;2023-03-23T07:49:53;2.83;;;2.10;;
21254;SDS011;10785;50.674;17.954;2023-03-23T07:52:34;1.90;;;1.65;;
21254;SDS011;10785;50.674;17.954;2023-03-23T07:55:03;2.55;;;1.25;;
21254;SDS011;10785;50.674;17.954;2023-03-23T07:57:51;4.32;;;3.03;;
21254;SDS011;10785;50.674;17.954;2023-03-23T08:00:20;2.15;;;1.95;;
21254;SDS011;10785;50.674;17.954;2023-03-23T08:02:52;4.85;;;2.88;;
21254;SDS011;10785;50.674;17.954;2023-03-23T08:05:49;3.80;;;1.70;;
21254;SDS011;10785;50.674;17.954;2023-03-23T08:08:42;2.33;;;1.95;;
21254;SDS011;10785;50.674;17.954;2023-03-23T08:11:30;3.83;;;2.25;;
21254;SDS011;10785;50.674;17.954;2023-03-23T08:14:12;1.67;;;1.20;;
21254;SDS011;10785;50.674;17.954;2023-03-23T08:17:00;9.70;;;2.17;;
21254;SDS011;10785;50.674;17.954;2023-03-23T08:19:47;1.80;;;1.50;;
21254;SDS011;10785;50.674;17.954;2023-03-23T08:22:45;1.70;;;1.60;;
21254;SDS011;10785;50.674;17.954;2023-03-23T08:25:47;2.20;;;1.77;;
21254;SDS011;10785;50.674;17.954;2023-03-23T08:28:31;1.05;;;0.80;;
21254;SDS011;10785;50.674;17.954;2023-03-23T08:31:21;3.13;;;1.75;;
21254;SDS011;10785;50.674;17.954;2023-03-23T08:33:58;1.23;;;1.00;;
21254;SDS011;10785;50.674;17.954;2023-03-23T08:36:37;3.72;;;1.83;;
21254;SDS011;10785;50.674;17.954;2023-03-23T08:39:23;2.10;;;1.67;;
21254;SDS011;10785;50.674;17.954;2023-03-23T08:42:09;3.42;;;1.95;;
21254;SDS011;10785;50.674;17.954;2023-03-23T08:44:43;2.05;;;1.10;;
21254;SDS011;10785;50.674;17.954;2023-03-23T08:47:25;5.82;;;2.13;;
21254;SDS011;10785;50.674;17.954;2023-03-23T08:50:14;8.30;;;1.67;;
21254;SDS011;10785;50.674;17.954;2023-03-23T08:52:52;1.10;;;1.10;;
21254;SDS011;10785;50.674;17.954;2023-03-23T08:55:35;3.13;;;2.40;;
21254;SDS011;10785;50.674;17.954;2023-03-23T08:58:21;1.88;;;1.13;;
21254;SDS011;10785;50.674;17.954;2023-03-23T09:01:11;2.45;;;1.45;;
21254;SDS011;10785;50.674;17.954;2023-03-23T09:03:59;1.92;;;1.45;;
21254;SDS011;10785;50.674;17.954;2023-03-23T09:06:52;2.22;;;1.50;;
21254;SDS011;10785;50.674;17.954;2023-03-23T09:09:21;5.00;;;1.77;;
21254;SDS011;10785;50.674;17.954;2023-03-23T09:11:50;1.73;;;1.42;;
21254;SDS011;10785;50.674;17.954;2023-03-23T09:14:19;0.68;;;0.68;;
21254;SDS011;10785;50.674;17.954;2023-03-23T09:16:47;2.88;;;1.70;;
21254;SDS011;10785;50.674;17.954;2023-03-23T09:19:15;3.17;;;2.00;;
21254;SDS011;10785;50.674;17.954;2023-03-23T09:21:43;2.28;;;1.60;;
21254;SDS011;10785;50.674;17.954;2023-03-23T09:24:11;1.48;;;1.15;;
21254;SDS011;10785;50.674;17.954;2023-03-23T09:26:39;1.20;;;1.10;;
21254;SDS011;10785;50.674;17.954;2023-03-23T09:29:08;1.52;;;1.30;;
21254;SDS011;10785;50.674;17.954;2023-03-23T09:31:36;8.43;;;1.88;;
21254;SDS011;10785;50.674;17.954;2023-03-23T09:34:05;1.65;;;0.88;;
21254;SDS011;10785;50.674;17.954;2023-03-23T09:36:35;2.20;;;1.35;;
21254;SDS011;10785;50.674;17.954;2023-03-23T09:39:04;1.38;;;1.27;;
21254;SDS011;10785;50.674;17.954;2023-03-23T09:41:45;1.20;;;1.08;;
21254;SDS011;10785;50.674;17.954;2023-03-23T09:44:38;1.08;;;0.60;;
21254;SDS011;10785;50.674;17.954;2023-03-23T09:47:16;0.73;;;0.73;;
21254;SDS011;10785;50.674;17.954;2023-03-23T09:49:50;1.00;;;0.98;;
21254;SDS011;10785;50.674;17.954;2023-03-23T09:52:34;8.10;;;0.80;;
21254;SDS011;10785;50.674;17.954;2023-03-23T09:55:14;3.22;;;1.35;;
21254;SDS011;10785;50.674;17.954;2023-03-23T09:57:45;2.85;;;1.13;;
21254;SDS011;10785;50.674;17.954;2023-03-23T10:00:20;1.52;;;1.33;;
21254;SDS011;10785;50.674;17.954;2023-03-23T10:02:53;0.75;;;0.75;;
21254;SDS011;10785;50.674;17.954;2023-03-23T10:05:31;1.23;;;0.85;;
21254;SDS011;10785;50.674;17.954;2023-03-23T10:08:02;1.55;;;0.95;;
21254;SDS011;10785;50.674;17.954;2023-03-23T10:10:39;3.17;;;1.98;;
21254;SDS011;10785;50.674;17.954;2023-03-23T10:13:23;1.38;;;1.00;;
21254;SDS011;10785;50.674;17.954;2023-03-23T10:15:59;0.70;;;0.70;;
21254;SDS011;10785;50.674;17.954;2023-03-23T10:18:29;1.73;;;1.08;;
21254;SDS011;10785;50.674;17.954;2023-03-23T10:20:59;0.70;;;0.70;;
21254;SDS011;10785;50.674;17.954;2023-03-23T10:26:32;0.40;;;0.40;;
21254;SDS011;10785;50.674;17.954;2023-03-23T11:01:41;0.40;;;0.40;;
21254;SDS011;10785;50.674;17.954;2023-03-23T11:04:12;2.10;;;0.90;;
21254;SDS011;10785;50.674;17.954;2023-03-23T11:06:43;0.85;;;0.85;;
21254;SDS011;10785;50.674;17.954;2023-03-23T11:09:13;0.65;;;0.63;;
21254;SDS011;10785;50.674;17.954;2023-03-23T11:11:43;0.40;;;0.40;;
21254;SDS011;10785;50.674;17.954;2023-03-23T11:14:16;0.98;;;0.88;;
21254;SDS011;10785;50.674;17.954;2023-03-23T11:16:50;0.35;;;0.35;;
21254;SDS011;10785;50.674;17.954;2023-03-23T11:19:24;0.47;;;0.47;;
21254;SDS011;10785;50.674;17.954;2023-03-23T11:21:56;0.90;;;0.80;;
21254;SDS011;10785;50.674;17.954;2023-03-23T11:24:34;0.30;;;0.30;;
21254;SDS011;10785;50.674;17.954;2023-03-23T11:27:07;0.98;;;0.80;;
21254;SDS011;10785;50.674;17.954;2023-03-23T11:29:36;0.20;;;0.20;;
21254;SDS011;10785;50.674;17.954;2023-03-23T11:32:16;0.57;;;0.40;;
21254;SDS011;10785;50.674;17.954;2023-03-23T11:34:45;0.88;;;0.65;;
21254;SDS011;10785;50.674;17.954;2023-03-23T11:37:19;0.75;;;0.35;;
21254;SDS011;10785;50.674;17.954;2023-03-23T11:39:53;0.38;;;0.28;;
21254;SDS011;10785;50.674;17.954;2023-03-23T11:42:24;0.40;;;0.40;;
21254;SDS011;10785;50.674;17.954;2023-03-23T11:45:05;0.52;;;0.20;;
21254;SDS011;10785;50.674;17.954;2023-03-23T11:47:43;1.02;;;0.90;;
21254;SDS011;10785;50.674;17.954;2023-03-23T11:50:26;0.30;;;0.30;;
21254;SDS011;10785;50.674;17.954;2023-03-23T11:52:59;0.77;;;0.40;;
21254;SDS011;10785;50.674;17.954;2023-03-23T11:55:31;0.55;;;0.47;;
21254;SDS011;10785;50.674;17.954;2023-03-23T11:58:05;0.75;;;0.75;;
21254;SDS011;10785;50.674;17.954;2023-03-23T12:00:39;0.40;;;0.20;;
21254;SDS011;10785;50.674;17.954;2023-03-23T12:03:30;0.20;;;0.20;;
21254;SDS011;10785;50.674;17.954;2023-03-23T12:06:25;0.20;;;0.20;;
21254;SDS011;10785;50.674;17.954;2023-03-23T12:09:03;2.10;;;0.60;;
21254;SDS011;10785;50.674;17.954;2023-03-23T12:11:43;0.45;;;0.45;;
21254;SDS011;10785;50.674;17.954;2023-03-23T12:14:21;0.45;;;0.40;;
21254;SDS011;10785;50.674;17.954;2023-03-23T12:16:59;0.50;;;0.50;;
21254;SDS011;10785;50.674;17.954;2023-03-23T12:19:39;0.20;;;0.20;;
21254;SDS011;10785;50.674;17.954;2023-03-23T12:22:14;0.80;;;0.80;;
21254;SDS011;10785;50.674;17.954;2023-03-23T12:24:55;1.00;;;0.55;;
21254;SDS011;10785;50.674;17.954;2023-03-23T12:27:33;0.28;;;0.28;;
21254;SDS011;10785;50.674;17.954;2023-03-23T12:32:57;1.17;;;0.85;;
21254;SDS011;10785;50.674;17.954;2023-03-23T12:35:34;0.60;;;0.60;;
21254;SDS011;10785;50.674;17.954;2023-03-23T12:38:17;0.73;;;0.40;;
21254;SDS011;10785;50.674;17.954;2023-03-23T12:41:02;0.50;;;0.50;;
21254;SDS011;10785;50.674;17.954;2023-03-23T12:43:38;0.30;;;0.30;;
21254;SDS011;10785;50.674;17.954;2023-03-23T12:46:21;0.77;;;0.50;;
21254;SDS011;10785;50.674;17.954;2023-03-23T12:49:00;0.70;;;0.70;;
21254;SDS011;10785;50.674;17.954;2023-03-23T12:51:34;0.40;;;0.38;;
21254;SDS011;10785;50.674;17.954;2023-03-23T12:54:07;0.50;;;0.50;;
21254;SDS011;10785;50.674;17.954;2023-03-23T12:56:41;0.47;;;0.43;;
21254;SDS011;10785;50.674;17.954;2023-03-23T12:59:14;0.50;;;0.50;;
21254;SDS011;10785;50.674;17.954;2023-03-23T13:01:49;0.88;;;0.82;;
21254;SDS011;10785;50.674;17.954;2023-03-23T13:04:21;1.27;;;0.50;;
21254;SDS011;10785;50.674;17.954;2023-03-23T13:06:55;0.82;;;0.73;;
21254;SDS011;10785;50.674;17.954;2023-03-23T13:09:26;0.50;;;0.50;;
21254;SDS011;10785;50.674;17.954;2023-03-23T13:11:59;0.43;;;0.40;;
21254;SDS011;10785;50.674;17.954;2023-03-23T13:14:34;0.70;;;0.70;;
21254;SDS011;10785;50.674;17.954;2023-03-23T13:17:11;0.40;;;0.40;;
21254;SDS011;10785;50.674;17.954;2023-03-23T13:19:58;12.15;;;1.13;;
21254;SDS011;10785;50.674;17.954;2023-03-23T13:22:36;1.05;;;0.95;;
21254;SDS011;10785;50.674;17.954;2023-03-23T13:25:13;2.13;;;1.08;;
21254;SDS011;10785;50.674;17.954;2023-03-23T13:27:55;1.55;;;1.05;;
21254;SDS011;10785;50.674;17.954;2023-03-23T13:30:24;5.68;;;0.63;;
21254;SDS011;10785;50.674;17.954;2023-03-23T13:33:01;0.82;;;0.73;;
21254;SDS011;10785;50.674;17.954;2023-03-23T13:35:33;0.57;;;0.57;;
21254;SDS011;10785;50.674;17.954;2023-03-23T13:38:13;0.75;;;0.52;;
21254;SDS011;10785;50.674;17.954;2023-03-23T13:40:46;2.65;;;0.45;;
21254;SDS011;10785;50.674;17.954;2023-03-23T13:43:24;2.17;;;1.15;;
21254;SDS011;10785;50.674;17.954;2023-03-23T13:45:53;0.70;;;0.65;;
21254;SDS011;10785;50.674;17.954;2023-03-23T13:48:23;0.98;;;0.40;;
21254;SDS011;10785;50.674;17.954;2023-03-23T13:50:53;1.00;;;0.80;;
21254;SDS011;10785;50.674;17.954;2023-03-23T13:53:24;0.55;;;0.52;;
21254;SDS011;10785;50.674;17.954;2023-03-23T13:56:05;2.15;;;0.98;;
21254;SDS011;10785;50.674;17.954;2023-03-23T13:58:43;0.50;;;0.50;;
21254;SDS011;10785;50.674;17.954;2023-03-23T14:01:14;1.23;;;0.75;;
21254;SDS011;10785;50.674;17.954;2023-03-23T14:03:46;0.60;;;0.60;;
21254;SDS011;10785;50.674;17.954;2023-03-23T14:06:17;4.97;;;0.73;;
21254;SDS011;10785;50.674;17.954;2023-03-23T14:09:22;1.33;;;1.23;;
21254;SDS011;10785;50.674;17.954;2023-03-23T14:11:54;1.27;;;0.52;;
21254;SDS011;10785;50.674;17.954;2023-03-23T14:14:27;1.33;;;1.17;;
21254;SDS011;10785;50.674;17.954;2023-03-23T14:17:05;1.27;;;0.85;;
21254;SDS011;10785;50.674;17.954;2023-03-23T14:19:37;0.52;;;0.52;;
21254;SDS011;10785;50.674;17.954;2023-03-23T14:22:14;1.23;;;0.75;;
21254;SDS011;10785;50.674;17.954;2023-03-23T14:24:46;1.20;;;0.82;;
21254;SDS011;10785;50.674;17.954;2023-03-23T14:27:14;0.70;;;0.70;;
21254;SDS011;10785;50.674;17.954;2023-03-23T14:29:42;0.60;;;0.55;;
21254;SDS011;10785;50.674;17.954;2023-03-23T14:32:12;0.43;;;0.40;;
21254;SDS011;10785;50.674;17.954;2023-03-23T14:34:42;1.17;;;1.08;;
21254;SDS011;10785;50.674;17.954;2023-03-23T14:37:13;3.45;;;1.48;;
21254;SDS011;10785;50.674;17.954;2023-03-23T14:39:44;0.57;;;0.57;;
21254;SDS011;10785;50.674;17.954;2023-03-23T14:42:14;0.80;;;0.70;;
21254;SDS011;10785;50.674;17.954;2023-03-23T14:44:44;1.80;;;0.93;;
21254;SDS011;10785;50.674;17.954;2023-03-23T14:47:17;4.32;;;1.25;;
21254;SDS011;10785;50.674;17.954;2023-03-23T14:49:46;1.33;;;0.85;;
21254;SDS011;10785;50.674;17.954;2023-03-23T14:52:18;1.92;;;1.05;;
21254;SDS011;10785;50.674;17.954;2023-03-23T14:54:51;1.60;;;1.23;;
21254;SDS011;10785;50.674;17.954;2023-03-23T14:57:20;2.35;;;0.95;;
21254;SDS011;10785;50.674;17.954;2023-03-23T14:59:53;1.90;;;1.05;;
21254;SDS011;10785;50.674;17.954;2023-03-23T15:02:23;1.58;;;1.48;;
21254;SDS011;10785;50.674;17.954;2023-03-23T15:49:21;2.35;;;1.92;;
21254;SDS011;10785;50.674;17.954;2023-03-23T15:51:50;3.63;;;1.38;;
21254;SDS011;10785;50.674;17.954;2023-03-23T15:54:18;1.00;;;0.90;;
21254;SDS011;10785;50.674;17.954;2023-03-23T15:56:45;2.28;;;1.88;;
21254;SDS011;10785;50.674;17.954;2023-03-23T15:59:13;1.10;;;1.00;;
21254;SDS011;10785;50.674;17.954;2023-03-23T16:01:41;1.73;;;1.45;;
21254;SDS011;10785;50.674;17.954;2023-03-23T16:04:12;4.15;;;2.05;;
21254;SDS011;10785;50.674;17.954;2023-03-23T16:06:45;2.85;;;1.83;;
21254;SDS011;10785;50.674;17.954;2023-03-23T16:09:15;0.93;;;0.80;;
21254;SDS011;10785;50.674;17.954;2023-03-23T16:11:45;0.82;;;0.65;;
21254;SDS011;10785;50.674;17.954;2023-03-23T16:14:14;3.72;;;2.60;;
21254;SDS011;10785;50.674;17.954;2023-03-23T16:16:43;4.45;;;2.55;;
21254;SDS011;10785;50.674;17.954;2023-03-23T16:19:16;24.95;;;1.92;;
21254;SDS011;10785;50.674;17.954;2023-03-23T16:21:51;2.83;;;1.65;;
21254;SDS011;10785;50.674;17.954;2023-03-23T16:24:20;2.28;;;2.08;;
21254;SDS011;10785;50.674;17.954;2023-03-23T16:26:48;1.50;;;1.40;;
21254;SDS011;10785;50.674;17.954;2023-03-23T16:29:17;2.40;;;1.65;;
21254;SDS011;10785;50.674;17.954;2023-03-23T16:32:05;2.17;;;1.42;;
21254;SDS011;10785;50.674;17.954;2023-03-23T16:34:34;1.55;;;1.42;;
21254;SDS011;10785;50.674;17.954;2023-03-23T16:37:05;3.00;;;1.50;;
21254;SDS011;10785;50.674;17.954;2023-03-23T16:39:35;21.23;;;1.15;;
21254;SDS011;10785;50.674;17.954;2023-03-23T16:42:03;1.75;;;1.27;;
21254;SDS011;10785;50.674;17.954;2023-03-23T16:44:32;1.33;;;1.23;;
21254;SDS011;10785;50.674;17.954;2023-03-23T16:47:01;1.30;;;1.20;;
21254;SDS011;10785;50.674;17.954;2023-03-23T16:49:30;1.00;;;0.88;;
21254;SDS011;10785;50.674;17.954;2023-03-23T16:51:58;2.72;;;1.27;;
21254;SDS011;10785;50.674;17.954;2023-03-23T16:54:28;23.17;;;4.35;;
21254;SDS011;10785;50.674;17.954;2023-03-23T16:56:57;6.13;;;4.75;;